Terminal Aerodrome Forecast
Issued by NWS

Current Version | Previous Version | Text Only | Print | Product List | Glossary Off
Versions: 1 2 3 4 5 6 7 8 9 10 11 12 13 14 15 16 17 18 19 20 21

000
FTUS41 KILN 311800 AAA
TAFLCK
TAF AMD
KLCK 311856Z 3119/0118 33022G31KT P6SM SCT020 BKN035
      TEMPO 3119/3123 BKN020
     FM010200 33004KT P6SM FEW025
     FM011400 27007KT P6SM SKC=

USA.gov is the U.S. government's official web portal to all federal, state and local government web resources and services.